sensor_id;sensor_type;location;lat;lon;timestamp;P1;durP1;ratioP1;P2;durP2;ratioP2
28170;SDS011;15458;53.346;-1.688;2023-07-20T00:01:27;7.15;;;2.20;;
28170;SDS011;15458;53.346;-1.688;2023-07-20T00:03:53;8.85;;;2.47;;
28170;SDS011;15458;53.346;-1.688;2023-07-20T00:06:22;5.10;;;2.38;;
28170;SDS011;15458;53.346;-1.688;2023-07-20T00:08:49;6.18;;;2.67;;
28170;SDS011;15458;53.346;-1.688;2023-07-20T00:11:14;5.07;;;2.70;;
28170;SDS011;15458;53.346;-1.688;2023-07-20T00:13:40;6.05;;;2.03;;
28170;SDS011;15458;53.346;-1.688;2023-07-20T00:16:06;3.58;;;2.10;;
28170;SDS011;15458;53.346;-1.688;2023-07-20T00:18:32;6.30;;;2.40;;
28170;SDS011;15458;53.346;-1.688;2023-07-20T00:20:57;9.75;;;2.40;;
28170;SDS011;15458;53.346;-1.688;2023-07-20T00:23:24;5.43;;;2.42;;
28170;SDS011;15458;53.346;-1.688;2023-07-20T00:25:51;4.10;;;2.55;;
28170;SDS011;15458;53.346;-1.688;2023-07-20T00:28:17;4.15;;;2.55;;
28170;SDS011;15458;53.346;-1.688;2023-07-20T00:30:42;7.50;;;3.00;;
28170;SDS011;15458;53.346;-1.688;2023-07-20T00:33:11;14.57;;;3.58;;
28170;SDS011;15458;53.346;-1.688;2023-07-20T00:35:40;7.53;;;3.60;;
28170;SDS011;15458;53.346;-1.688;2023-07-20T00:38:06;6.82;;;3.30;;
28170;SDS011;15458;53.346;-1.688;2023-07-20T00:40:38;8.20;;;3.55;;
28170;SDS011;15458;53.346;-1.688;2023-07-20T00:43:05;4.13;;;2.95;;
28170;SDS011;15458;53.346;-1.688;2023-07-20T00:45:31;9.68;;;2.97;;
28170;SDS011;15458;53.346;-1.688;2023-07-20T00:47:58;4.57;;;2.90;;
28170;SDS011;15458;53.346;-1.688;2023-07-20T00:50:24;4.32;;;2.80;;
28170;SDS011;15458;53.346;-1.688;2023-07-20T00:52:51;8.43;;;2.67;;
28170;SDS011;15458;53.346;-1.688;2023-07-20T00:55:18;6.13;;;3.10;;
28170;SDS011;15458;53.346;-1.688;2023-07-20T00:57:44;5.50;;;2.53;;
28170;SDS011;15458;53.346;-1.688;2023-07-20T01:00:10;3.80;;;2.40;;
28170;SDS011;15458;53.346;-1.688;2023-07-20T01:02:36;5.65;;;2.50;;
28170;SDS011;15458;53.346;-1.688;2023-07-20T01:05:02;6.30;;;2.40;;
28170;SDS011;15458;53.346;-1.688;2023-07-20T01:07:34;4.93;;;2.20;;
28170;SDS011;15458;53.346;-1.688;2023-07-20T01:12:38;9.05;;;2.60;;
28170;SDS011;15458;53.346;-1.688;2023-07-20T01:15:11;7.47;;;2.38;;
28170;SDS011;15458;53.346;-1.688;2023-07-20T01:17:37;4.22;;;2.25;;
28170;SDS011;15458;53.346;-1.688;2023-07-20T01:20:03;6.45;;;2.58;;
28170;SDS011;15458;53.346;-1.688;2023-07-20T01:22:40;7.13;;;2.25;;
28170;SDS011;15458;53.346;-1.688;2023-07-20T01:31:25;5.88;;;2.42;;
28170;SDS011;15458;53.346;-1.688;2023-07-20T01:34:02;5.90;;;2.15;;
28170;SDS011;15458;53.346;-1.688;2023-07-20T01:36:33;7.60;;;2.90;;
28170;SDS011;15458;53.346;-1.688;2023-07-20T01:39:01;5.03;;;2.53;;
28170;SDS011;15458;53.346;-1.688;2023-07-20T01:41:27;3.38;;;2.35;;
28170;SDS011;15458;53.346;-1.688;2023-07-20T01:43:53;3.60;;;2.60;;
28170;SDS011;15458;53.346;-1.688;2023-07-20T01:46:22;5.35;;;2.80;;
28170;SDS011;15458;53.346;-1.688;2023-07-20T01:48:47;8.25;;;2.75;;
28170;SDS011;15458;53.346;-1.688;2023-07-20T01:51:13;4.90;;;2.35;;
28170;SDS011;15458;53.346;-1.688;2023-07-20T01:53:39;5.68;;;2.70;;
28170;SDS011;15458;53.346;-1.688;2023-07-20T01:56:04;6.10;;;2.70;;
28170;SDS011;15458;53.346;-1.688;2023-07-20T01:58:30;3.75;;;2.40;;
28170;SDS011;15458;53.346;-1.688;2023-07-20T02:00:55;10.60;;;3.60;;
28170;SDS011;15458;53.346;-1.688;2023-07-20T02:03:21;3.13;;;2.50;;
28170;SDS011;15458;53.346;-1.688;2023-07-20T02:05:48;4.70;;;2.53;;
28170;SDS011;15458;53.346;-1.688;2023-07-20T02:08:15;5.45;;;2.50;;
28170;SDS011;15458;53.346;-1.688;2023-07-20T02:10:41;5.40;;;2.47;;
28170;SDS011;15458;53.346;-1.688;2023-07-20T02:13:07;4.93;;;2.75;;
28170;SDS011;15458;53.346;-1.688;2023-07-20T02:15:32;4.90;;;2.10;;
28170;SDS011;15458;53.346;-1.688;2023-07-20T02:17:58;6.00;;;2.83;;
28170;SDS011;15458;53.346;-1.688;2023-07-20T02:20:24;9.05;;;2.53;;
28170;SDS011;15458;53.346;-1.688;2023-07-20T02:22:49;7.70;;;2.70;;
28170;SDS011;15458;53.346;-1.688;2023-07-20T02:25:15;3.72;;;2.60;;
28170;SDS011;15458;53.346;-1.688;2023-07-20T02:27:41;3.95;;;2.45;;
28170;SDS011;15458;53.346;-1.688;2023-07-20T02:30:07;4.93;;;2.85;;
28170;SDS011;15458;53.346;-1.688;2023-07-20T02:32:34;3.95;;;2.63;;
28170;SDS011;15458;53.346;-1.688;2023-07-20T02:35:00;4.50;;;2.33;;
28170;SDS011;15458;53.346;-1.688;2023-07-20T02:37:25;3.63;;;2.70;;
28170;SDS011;15458;53.346;-1.688;2023-07-20T02:39:51;4.30;;;3.00;;
28170;SDS011;15458;53.346;-1.688;2023-07-20T02:42:16;6.20;;;2.72;;
28170;SDS011;15458;53.346;-1.688;2023-07-20T02:44:42;5.50;;;2.70;;
28170;SDS011;15458;53.346;-1.688;2023-07-20T02:47:08;3.85;;;2.67;;
28170;SDS011;15458;53.346;-1.688;2023-07-20T02:49:34;4.60;;;2.50;;
28170;SDS011;15458;53.346;-1.688;2023-07-20T02:51:59;4.03;;;2.60;;
28170;SDS011;15458;53.346;-1.688;2023-07-20T02:54:25;8.68;;;3.25;;
28170;SDS011;15458;53.346;-1.688;2023-07-20T02:56:51;5.65;;;3.38;;
28170;SDS011;15458;53.346;-1.688;2023-07-20T02:59:16;3.90;;;2.75;;
28170;SDS011;15458;53.346;-1.688;2023-07-20T03:01:42;3.70;;;2.45;;
28170;SDS011;15458;53.346;-1.688;2023-07-20T03:04:08;4.43;;;2.10;;
28170;SDS011;15458;53.346;-1.688;2023-07-20T03:06:35;2.72;;;2.22;;
28170;SDS011;15458;53.346;-1.688;2023-07-20T03:09:01;5.70;;;2.50;;
28170;SDS011;15458;53.346;-1.688;2023-07-20T03:11:28;3.65;;;2.88;;
28170;SDS011;15458;53.346;-1.688;2023-07-20T03:13:54;5.72;;;3.03;;
28170;SDS011;15458;53.346;-1.688;2023-07-20T03:16:20;4.05;;;2.08;;
28170;SDS011;15458;53.346;-1.688;2023-07-20T03:18:46;3.42;;;2.53;;
28170;SDS011;15458;53.346;-1.688;2023-07-20T03:21:12;4.72;;;3.00;;
28170;SDS011;15458;53.346;-1.688;2023-07-20T03:23:38;4.55;;;2.38;;
28170;SDS011;15458;53.346;-1.688;2023-07-20T03:26:05;9.63;;;2.75;;
28170;SDS011;15458;53.346;-1.688;2023-07-20T03:28:33;3.05;;;2.75;;
28170;SDS011;15458;53.346;-1.688;2023-07-20T03:31:03;6.67;;;2.70;;
28170;SDS011;15458;53.346;-1.688;2023-07-20T03:33:29;7.18;;;2.97;;
28170;SDS011;15458;53.346;-1.688;2023-07-20T03:35:55;5.03;;;3.38;;
28170;SDS011;15458;53.346;-1.688;2023-07-20T03:38:24;5.68;;;2.80;;
28170;SDS011;15458;53.346;-1.688;2023-07-20T03:43:17;4.50;;;2.85;;
28170;SDS011;15458;53.346;-1.688;2023-07-20T03:45:43;4.47;;;2.95;;
28170;SDS011;15458;53.346;-1.688;2023-07-20T03:48:08;9.43;;;3.40;;
28170;SDS011;15458;53.346;-1.688;2023-07-20T03:50:34;11.55;;;3.42;;
28170;SDS011;15458;53.346;-1.688;2023-07-20T03:53:00;5.10;;;2.65;;
28170;SDS011;15458;53.346;-1.688;2023-07-20T03:55:25;7.10;;;2.63;;
28170;SDS011;15458;53.346;-1.688;2023-07-20T03:57:51;3.83;;;2.55;;
28170;SDS011;15458;53.346;-1.688;2023-07-20T04:00:17;4.50;;;2.58;;
28170;SDS011;15458;53.346;-1.688;2023-07-20T04:02:43;5.65;;;3.25;;
28170;SDS011;15458;53.346;-1.688;2023-07-20T04:05:08;6.40;;;2.67;;
28170;SDS011;15458;53.346;-1.688;2023-07-20T04:07:34;4.00;;;2.78;;
28170;SDS011;15458;53.346;-1.688;2023-07-20T04:10:00;5.82;;;2.92;;
28170;SDS011;15458;53.346;-1.688;2023-07-20T04:12:26;4.90;;;3.00;;
28170;SDS011;15458;53.346;-1.688;2023-07-20T04:14:51;4.45;;;2.70;;
28170;SDS011;15458;53.346;-1.688;2023-07-20T04:17:18;4.93;;;3.00;;
28170;SDS011;15458;53.346;-1.688;2023-07-20T04:19:43;5.07;;;3.20;;
28170;SDS011;15458;53.346;-1.688;2023-07-20T04:22:09;5.43;;;2.80;;
28170;SDS011;15458;53.346;-1.688;2023-07-20T04:24:35;4.50;;;3.03;;
28170;SDS011;15458;53.346;-1.688;2023-07-20T04:27:00;7.07;;;3.13;;
28170;SDS011;15458;53.346;-1.688;2023-07-20T04:29:26;6.07;;;3.95;;
28170;SDS011;15458;53.346;-1.688;2023-07-20T04:31:52;6.20;;;3.70;;
28170;SDS011;15458;53.346;-1.688;2023-07-20T04:34:17;6.88;;;3.08;;
28170;SDS011;15458;53.346;-1.688;2023-07-20T04:36:43;2.78;;;2.28;;
28170;SDS011;15458;53.346;-1.688;2023-07-20T04:39:09;5.25;;;3.35;;
28170;SDS011;15458;53.346;-1.688;2023-07-20T04:41:35;4.75;;;3.03;;
28170;SDS011;15458;53.346;-1.688;2023-07-20T04:44:01;7.07;;;3.38;;
28170;SDS011;15458;53.346;-1.688;2023-07-20T04:46:26;7.20;;;3.55;;
28170;SDS011;15458;53.346;-1.688;2023-07-20T04:48:52;5.45;;;3.35;;
28170;SDS011;15458;53.346;-1.688;2023-07-20T04:51:18;7.22;;;3.72;;
28170;SDS011;15458;53.346;-1.688;2023-07-20T04:53:46;6.32;;;3.10;;
28170;SDS011;15458;53.346;-1.688;2023-07-20T04:56:12;6.28;;;3.65;;
28170;SDS011;15458;53.346;-1.688;2023-07-20T04:58:38;5.43;;;3.30;;
28170;SDS011;15458;53.346;-1.688;2023-07-20T05:01:04;5.45;;;2.80;;
28170;SDS011;15458;53.346;-1.688;2023-07-20T05:03:30;7.05;;;2.92;;
28170;SDS011;15458;53.346;-1.688;2023-07-20T05:05:56;6.85;;;2.47;;
28170;SDS011;15458;53.346;-1.688;2023-07-20T05:08:22;4.90;;;3.25;;
28170;SDS011;15458;53.346;-1.688;2023-07-20T05:10:48;5.28;;;3.08;;
28170;SDS011;15458;53.346;-1.688;2023-07-20T05:13:14;5.38;;;3.50;;
28170;SDS011;15458;53.346;-1.688;2023-07-20T05:15:40;6.03;;;3.10;;
28170;SDS011;15458;53.346;-1.688;2023-07-20T05:18:06;4.97;;;3.05;;
28170;SDS011;15458;53.346;-1.688;2023-07-20T05:20:33;4.57;;;3.13;;
28170;SDS011;15458;53.346;-1.688;2023-07-20T05:22:59;4.68;;;3.08;;
28170;SDS011;15458;53.346;-1.688;2023-07-20T05:25:26;9.25;;;2.97;;
28170;SDS011;15458;53.346;-1.688;2023-07-20T05:27:54;5.85;;;3.03;;
28170;SDS011;15458;53.346;-1.688;2023-07-20T05:30:20;4.55;;;2.72;;
28170;SDS011;15458;53.346;-1.688;2023-07-20T05:32:46;4.97;;;3.00;;
28170;SDS011;15458;53.346;-1.688;2023-07-20T05:35:16;5.32;;;2.63;;
28170;SDS011;15458;53.346;-1.688;2023-07-20T05:37:42;6.22;;;2.92;;
28170;SDS011;15458;53.346;-1.688;2023-07-20T05:40:09;5.85;;;2.90;;
28170;SDS011;15458;53.346;-1.688;2023-07-20T05:42:37;9.07;;;3.17;;
28170;SDS011;15458;53.346;-1.688;2023-07-20T05:45:03;6.63;;;3.53;;
28170;SDS011;15458;53.346;-1.688;2023-07-20T05:47:29;6.10;;;2.83;;
28170;SDS011;15458;53.346;-1.688;2023-07-20T05:49:54;5.70;;;3.83;;
28170;SDS011;15458;53.346;-1.688;2023-07-20T05:52:20;5.53;;;3.08;;
28170;SDS011;15458;53.346;-1.688;2023-07-20T05:54:46;7.03;;;3.05;;
28170;SDS011;15458;53.346;-1.688;2023-07-20T05:57:11;8.20;;;3.60;;
28170;SDS011;15458;53.346;-1.688;2023-07-20T05:59:37;6.30;;;3.40;;
28170;SDS011;15458;53.346;-1.688;2023-07-20T06:02:03;6.03;;;3.28;;
28170;SDS011;15458;53.346;-1.688;2023-07-20T06:04:29;8.75;;;3.50;;
28170;SDS011;15458;53.346;-1.688;2023-07-20T06:06:55;3.83;;;2.83;;
28170;SDS011;15458;53.346;-1.688;2023-07-20T06:09:20;6.60;;;3.33;;
28170;SDS011;15458;53.346;-1.688;2023-07-20T06:11:46;8.05;;;4.13;;
28170;SDS011;15458;53.346;-1.688;2023-07-20T06:14:11;10.75;;;4.38;;
28170;SDS011;15458;53.346;-1.688;2023-07-20T06:16:37;6.55;;;3.50;;
28170;SDS011;15458;53.346;-1.688;2023-07-20T06:19:03;11.35;;;5.07;;
28170;SDS011;15458;53.346;-1.688;2023-07-20T06:21:29;9.63;;;5.32;;
28170;SDS011;15458;53.346;-1.688;2023-07-20T06:23:54;5.55;;;3.60;;
28170;SDS011;15458;53.346;-1.688;2023-07-20T06:26:20;7.53;;;4.43;;
28170;SDS011;15458;53.346;-1.688;2023-07-20T06:28:46;17.95;;;7.43;;
28170;SDS011;15458;53.346;-1.688;2023-07-20T06:31:12;13.77;;;7.55;;
28170;SDS011;15458;53.346;-1.688;2023-07-20T06:33:37;11.45;;;6.38;;
28170;SDS011;15458;53.346;-1.688;2023-07-20T06:36:03;10.50;;;5.95;;
28170;SDS011;15458;53.346;-1.688;2023-07-20T06:38:29;13.43;;;6.18;;
28170;SDS011;15458;53.346;-1.688;2023-07-20T06:40:55;17.33;;;7.60;;
28170;SDS011;15458;53.346;-1.688;2023-07-20T06:43:20;21.40;;;8.90;;
28170;SDS011;15458;53.346;-1.688;2023-07-20T06:45:51;17.42;;;9.00;;
28170;SDS011;15458;53.346;-1.688;2023-07-20T06:48:20;21.92;;;10.30;;
28170;SDS011;15458;53.346;-1.688;2023-07-20T06:50:46;18.35;;;10.27;;
28170;SDS011;15458;53.346;-1.688;2023-07-20T06:53:12;19.40;;;9.48;;
28170;SDS011;15458;53.346;-1.688;2023-07-20T06:55:38;12.50;;;6.45;;
28170;SDS011;15458;53.346;-1.688;2023-07-20T06:58:04;12.95;;;5.35;;
28170;SDS011;15458;53.346;-1.688;2023-07-20T07:00:30;9.68;;;5.78;;
28170;SDS011;15458;53.346;-1.688;2023-07-20T07:02:56;21.58;;;9.75;;
28170;SDS011;15458;53.346;-1.688;2023-07-20T07:05:21;16.63;;;8.75;;
28170;SDS011;15458;53.346;-1.688;2023-07-20T07:07:47;22.42;;;8.70;;
28170;SDS011;15458;53.346;-1.688;2023-07-20T07:10:13;16.05;;;8.98;;
28170;SDS011;15458;53.346;-1.688;2023-07-20T07:12:39;16.58;;;8.88;;
28170;SDS011;15458;53.346;-1.688;2023-07-20T07:15:06;19.70;;;8.70;;
28170;SDS011;15458;53.346;-1.688;2023-07-20T07:17:32;16.55;;;8.70;;
28170;SDS011;15458;53.346;-1.688;2023-07-20T07:19:58;18.13;;;9.88;;
28170;SDS011;15458;53.346;-1.688;2023-07-20T07:22:23;16.13;;;8.48;;
28170;SDS011;15458;53.346;-1.688;2023-07-20T07:24:50;16.92;;;8.90;;
28170;SDS011;15458;53.346;-1.688;2023-07-20T07:27:16;17.77;;;8.82;;
28170;SDS011;15458;53.346;-1.688;2023-07-20T07:29:42;20.83;;;10.10;;
28170;SDS011;15458;53.346;-1.688;2023-07-20T07:32:11;16.45;;;8.90;;
28170;SDS011;15458;53.346;-1.688;2023-07-20T07:34:37;22.42;;;10.55;;
28170;SDS011;15458;53.346;-1.688;2023-07-20T07:37:04;23.52;;;10.45;;
28170;SDS011;15458;53.346;-1.688;2023-07-20T07:39:30;21.17;;;9.25;;
28170;SDS011;15458;53.346;-1.688;2023-07-20T07:41:56;17.35;;;9.48;;
28170;SDS011;15458;53.346;-1.688;2023-07-20T07:44:22;20.52;;;9.82;;
28170;SDS011;15458;53.346;-1.688;2023-07-20T07:46:48;16.98;;;9.52;;
28170;SDS011;15458;53.346;-1.688;2023-07-20T07:49:14;19.88;;;9.55;;
28170;SDS011;15458;53.346;-1.688;2023-07-20T07:51:41;17.38;;;8.90;;
28170;SDS011;15458;53.346;-1.688;2023-07-20T07:54:06;21.25;;;9.82;;
28170;SDS011;15458;53.346;-1.688;2023-07-20T07:56:32;16.25;;;9.35;;
28170;SDS011;15458;53.346;-1.688;2023-07-20T07:58:58;18.23;;;9.82;;
28170;SDS011;15458;53.346;-1.688;2023-07-20T08:01:23;17.85;;;9.35;;
28170;SDS011;15458;53.346;-1.688;2023-07-20T08:03:49;14.35;;;8.52;;
28170;SDS011;15458;53.346;-1.688;2023-07-20T08:06:17;16.13;;;9.10;;
28170;SDS011;15458;53.346;-1.688;2023-07-20T08:08:42;11.32;;;8.15;;
28170;SDS011;15458;53.346;-1.688;2023-07-20T08:11:08;17.33;;;8.88;;
28170;SDS011;15458;53.346;-1.688;2023-07-20T08:13:34;14.45;;;9.27;;
28170;SDS011;15458;53.346;-1.688;2023-07-20T08:16:04;15.07;;;8.73;;
28170;SDS011;15458;53.346;-1.688;2023-07-20T08:18:29;15.30;;;8.30;;
28170;SDS011;15458;53.346;-1.688;2023-07-20T08:20:58;13.82;;;8.20;;
28170;SDS011;15458;53.346;-1.688;2023-07-20T08:23:24;17.90;;;8.32;;
28170;SDS011;15458;53.346;-1.688;2023-07-20T08:25:49;15.05;;;8.38;;
28170;SDS011;15458;53.346;-1.688;2023-07-20T08:28:15;15.48;;;8.23;;
28170;SDS011;15458;53.346;-1.688;2023-07-20T08:30:42;18.50;;;8.45;;
28170;SDS011;15458;53.346;-1.688;2023-07-20T08:33:15;15.73;;;7.93;;
28170;SDS011;15458;53.346;-1.688;2023-07-20T08:35:45;16.20;;;8.52;;
28170;SDS011;15458;53.346;-1.688;2023-07-20T08:38:11;15.45;;;9.13;;
28170;SDS011;15458;53.346;-1.688;2023-07-20T08:40:56;12.75;;;7.72;;
28170;SDS011;15458;53.346;-1.688;2023-07-20T08:43:22;14.93;;;7.40;;
28170;SDS011;15458;53.346;-1.688;2023-07-20T08:45:52;15.10;;;8.55;;
28170;SDS011;15458;53.346;-1.688;2023-07-20T08:48:21;12.60;;;7.97;;
28170;SDS011;15458;53.346;-1.688;2023-07-20T08:50:48;13.40;;;7.43;;
28170;SDS011;15458;53.346;-1.688;2023-07-20T08:53:15;15.02;;;7.60;;
28170;SDS011;15458;53.346;-1.688;2023-07-20T08:55:42;17.70;;;8.98;;
28170;SDS011;15458;53.346;-1.688;2023-07-20T08:58:11;13.15;;;7.78;;
28170;SDS011;15458;53.346;-1.688;2023-07-20T09:00:37;16.67;;;9.02;;
28170;SDS011;15458;53.346;-1.688;2023-07-20T09:03:04;13.80;;;8.20;;
28170;SDS011;15458;53.346;-1.688;2023-07-20T09:05:30;13.77;;;7.95;;
28170;SDS011;15458;53.346;-1.688;2023-07-20T09:07:56;15.52;;;8.18;;
28170;SDS011;15458;53.346;-1.688;2023-07-20T09:10:22;15.65;;;7.88;;
28170;SDS011;15458;53.346;-1.688;2023-07-20T09:12:48;16.10;;;8.25;;
28170;SDS011;15458;53.346;-1.688;2023-07-20T09:15:14;10.68;;;7.38;;
28170;SDS011;15458;53.346;-1.688;2023-07-20T09:17:45;13.60;;;7.97;;
28170;SDS011;15458;53.346;-1.688;2023-07-20T09:20:12;21.45;;;9.38;;
28170;SDS011;15458;53.346;-1.688;2023-07-20T09:22:39;14.45;;;9.32;;
28170;SDS011;15458;53.346;-1.688;2023-07-20T09:25:14;12.77;;;8.00;;
28170;SDS011;15458;53.346;-1.688;2023-07-20T09:27:45;16.80;;;8.00;;
28170;SDS011;15458;53.346;-1.688;2023-07-20T09:30:13;17.65;;;8.63;;
28170;SDS011;15458;53.346;-1.688;2023-07-20T09:32:44;14.13;;;8.48;;
28170;SDS011;15458;53.346;-1.688;2023-07-20T09:37:40;15.90;;;9.13;;
28170;SDS011;15458;53.346;-1.688;2023-07-20T09:40:10;18.73;;;8.57;;
28170;SDS011;15458;53.346;-1.688;2023-07-20T09:42:39;13.95;;;8.27;;
28170;SDS011;15458;53.346;-1.688;2023-07-20T09:45:06;13.70;;;8.60;;
28170;SDS011;15458;53.346;-1.688;2023-07-20T09:47:33;16.17;;;7.88;;
28170;SDS011;15458;53.346;-1.688;2023-07-20T09:50:02;13.32;;;7.88;;
28170;SDS011;15458;53.346;-1.688;2023-07-20T09:52:28;12.48;;;7.75;;
28170;SDS011;15458;53.346;-1.688;2023-07-20T09:54:54;15.07;;;7.97;;
28170;SDS011;15458;53.346;-1.688;2023-07-20T09:57:21;14.95;;;8.13;;
28170;SDS011;15458;53.346;-1.688;2023-07-20T09:59:46;13.68;;;8.73;;
28170;SDS011;15458;53.346;-1.688;2023-07-20T10:02:23;17.50;;;8.52;;
28170;SDS011;15458;53.346;-1.688;2023-07-20T10:04:53;15.55;;;8.20;;
28170;SDS011;15458;53.346;-1.688;2023-07-20T10:07:19;16.60;;;8.93;;
28170;SDS011;15458;53.346;-1.688;2023-07-20T10:09:48;17.45;;;8.25;;
28170;SDS011;15458;53.346;-1.688;2023-07-20T10:12:16;11.93;;;8.15;;
28170;SDS011;15458;53.346;-1.688;2023-07-20T10:14:44;13.60;;;7.82;;
28170;SDS011;15458;53.346;-1.688;2023-07-20T10:17:28;14.57;;;7.47;;
28170;SDS011;15458;53.346;-1.688;2023-07-20T10:19:56;13.10;;;8.25;;
28170;SDS011;15458;53.346;-1.688;2023-07-20T10:22:26;13.43;;;8.50;;
28170;SDS011;15458;53.346;-1.688;2023-07-20T10:24:52;13.48;;;8.38;;
28170;SDS011;15458;53.346;-1.688;2023-07-20T10:27:22;16.98;;;8.65;;
28170;SDS011;15458;53.346;-1.688;2023-07-20T10:29:48;17.42;;;8.68;;
28170;SDS011;15458;53.346;-1.688;2023-07-20T10:32:15;14.07;;;8.30;;
28170;SDS011;15458;53.346;-1.688;2023-07-20T10:34:42;18.20;;;8.38;;
28170;SDS011;15458;53.346;-1.688;2023-07-20T10:37:07;14.27;;;8.00;;
28170;SDS011;15458;53.346;-1.688;2023-07-20T10:39:33;12.15;;;7.55;;
28170;SDS011;15458;53.346;-1.688;2023-07-20T10:42:00;12.40;;;8.18;;
28170;SDS011;15458;53.346;-1.688;2023-07-20T10:44:28;15.77;;;7.53;;
28170;SDS011;15458;53.346;-1.688;2023-07-20T10:47:01;17.38;;;8.20;;
28170;SDS011;15458;53.346;-1.688;2023-07-20T10:49:32;13.05;;;7.85;;
28170;SDS011;15458;53.346;-1.688;2023-07-20T10:52:00;12.23;;;7.32;;
28170;SDS011;15458;53.346;-1.688;2023-07-20T11:00:06;10.20;;;6.45;;
28170;SDS011;15458;53.346;-1.688;2023-07-20T11:02:46;13.02;;;7.90;;
28170;SDS011;15458;53.346;-1.688;2023-07-20T11:05:32;10.48;;;6.65;;
28170;SDS011;15458;53.346;-1.688;2023-07-20T11:07:59;12.68;;;7.30;;
28170;SDS011;15458;53.346;-1.688;2023-07-20T11:10:25;11.93;;;7.03;;
28170;SDS011;15458;53.346;-1.688;2023-07-20T11:18:25;12.02;;;7.63;;
28170;SDS011;15458;53.346;-1.688;2023-07-20T11:20:51;7.78;;;4.97;;
28170;SDS011;15458;53.346;-1.688;2023-07-20T11:23:18;13.02;;;6.75;;
28170;SDS011;15458;53.346;-1.688;2023-07-20T11:25:45;9.63;;;6.47;;
28170;SDS011;15458;53.346;-1.688;2023-07-20T11:28:11;8.70;;;6.43;;
28170;SDS011;15458;53.346;-1.688;2023-07-20T11:30:39;10.75;;;6.07;;
28170;SDS011;15458;53.346;-1.688;2023-07-20T11:33:05;10.70;;;6.47;;
28170;SDS011;15458;53.346;-1.688;2023-07-20T11:35:43;15.57;;;6.68;;
28170;SDS011;15458;53.346;-1.688;2023-07-20T11:38:11;9.88;;;6.53;;
28170;SDS011;15458;53.346;-1.688;2023-07-20T11:40:42;10.43;;;6.75;;
28170;SDS011;15458;53.346;-1.688;2023-07-20T11:43:09;9.50;;;6.00;;
28170;SDS011;15458;53.346;-1.688;2023-07-20T11:45:37;10.02;;;6.72;;
28170;SDS011;15458;53.346;-1.688;2023-07-20T11:48:03;11.75;;;6.68;;
28170;SDS011;15458;53.346;-1.688;2023-07-20T11:50:30;10.85;;;6.63;;
28170;SDS011;15458;53.346;-1.688;2023-07-20T11:52:55;9.73;;;6.43;;
28170;SDS011;15458;53.346;-1.688;2023-07-20T11:55:22;10.15;;;5.60;;
28170;SDS011;15458;53.346;-1.688;2023-07-20T11:58:09;9.38;;;5.97;;
28170;SDS011;15458;53.346;-1.688;2023-07-20T12:00:35;9.30;;;5.97;;
28170;SDS011;15458;53.346;-1.688;2023-07-20T12:03:04;9.32;;;6.45;;
28170;SDS011;15458;53.346;-1.688;2023-07-20T12:05:35;10.82;;;7.03;;
28170;SDS011;15458;53.346;-1.688;2023-07-20T12:08:01;10.75;;;6.57;;
28170;SDS011;15458;53.346;-1.688;2023-07-20T12:10:27;9.98;;;5.85;;
28170;SDS011;15458;53.346;-1.688;2023-07-20T12:12:54;11.15;;;6.63;;
28170;SDS011;15458;53.346;-1.688;2023-07-20T12:17:49;7.22;;;5.30;;
28170;SDS011;15458;53.346;-1.688;2023-07-20T12:20:29;7.57;;;5.15;;
28170;SDS011;15458;53.346;-1.688;2023-07-20T12:22:56;8.07;;;4.80;;
28170;SDS011;15458;53.346;-1.688;2023-07-20T12:25:31;7.90;;;5.22;;
28170;SDS011;15458;53.346;-1.688;2023-07-20T12:28:11;7.95;;;4.63;;
28170;SDS011;15458;53.346;-1.688;2023-07-20T12:30:42;6.65;;;4.55;;
28170;SDS011;15458;53.346;-1.688;2023-07-20T12:33:11;9.43;;;5.65;;
28170;SDS011;15458;53.346;-1.688;2023-07-20T12:35:40;7.53;;;4.85;;
28170;SDS011;15458;53.346;-1.688;2023-07-20T12:38:08;8.07;;;4.38;;
28170;SDS011;15458;53.346;-1.688;2023-07-20T12:40:34;7.75;;;4.85;;
28170;SDS011;15458;53.346;-1.688;2023-07-20T12:43:01;10.88;;;6.43;;
28170;SDS011;15458;53.346;-1.688;2023-07-20T12:45:26;9.38;;;5.65;;
28170;SDS011;15458;53.346;-1.688;2023-07-20T12:47:52;19.60;;;10.90;;
28170;SDS011;15458;53.346;-1.688;2023-07-20T12:50:18;19.70;;;10.75;;
28170;SDS011;15458;53.346;-1.688;2023-07-20T12:52:43;17.25;;;10.13;;
28170;SDS011;15458;53.346;-1.688;2023-07-20T12:55:09;13.85;;;7.40;;
28170;SDS011;15458;53.346;-1.688;2023-07-20T12:57:35;9.07;;;6.18;;
28170;SDS011;15458;53.346;-1.688;2023-07-20T13:00:03;7.38;;;5.18;;
28170;SDS011;15458;53.346;-1.688;2023-07-20T13:02:32;7.72;;;4.55;;
28170;SDS011;15458;53.346;-1.688;2023-07-20T13:04:58;7.05;;;4.57;;
28170;SDS011;15458;53.346;-1.688;2023-07-20T13:09:57;6.78;;;4.50;;
28170;SDS011;15458;53.346;-1.688;2023-07-20T13:12:24;8.00;;;4.88;;
28170;SDS011;15458;53.346;-1.688;2023-07-20T13:14:49;6.60;;;4.28;;
28170;SDS011;15458;53.346;-1.688;2023-07-20T13:17:15;8.80;;;4.25;;
28170;SDS011;15458;53.346;-1.688;2023-07-20T13:19:41;7.43;;;4.68;;
28170;SDS011;15458;53.346;-1.688;2023-07-20T13:22:07;6.18;;;4.43;;
28170;SDS011;15458;53.346;-1.688;2023-07-20T13:24:32;5.57;;;3.83;;
28170;SDS011;15458;53.346;-1.688;2023-07-20T13:26:58;6.10;;;4.03;;
28170;SDS011;15458;53.346;-1.688;2023-07-20T13:29:24;6.25;;;4.70;;
28170;SDS011;15458;53.346;-1.688;2023-07-20T13:31:51;5.15;;;3.90;;
28170;SDS011;15458;53.346;-1.688;2023-07-20T13:34:17;7.53;;;3.63;;
28170;SDS011;15458;53.346;-1.688;2023-07-20T13:36:43;9.48;;;4.53;;
28170;SDS011;15458;53.346;-1.688;2023-07-20T13:39:08;5.85;;;3.85;;
28170;SDS011;15458;53.346;-1.688;2023-07-20T13:41:34;7.32;;;4.50;;
28170;SDS011;15458;53.346;-1.688;2023-07-20T13:44:00;5.15;;;3.65;;
28170;SDS011;15458;53.346;-1.688;2023-07-20T13:46:26;7.82;;;4.93;;
28170;SDS011;15458;53.346;-1.688;2023-07-20T13:48:51;6.30;;;3.95;;
28170;SDS011;15458;53.346;-1.688;2023-07-20T13:51:17;9.45;;;3.80;;
28170;SDS011;15458;53.346;-1.688;2023-07-20T13:53:45;4.85;;;3.65;;
28170;SDS011;15458;53.346;-1.688;2023-07-20T13:56:11;4.40;;;3.60;;
28170;SDS011;15458;53.346;-1.688;2023-07-20T13:58:37;7.63;;;3.80;;
28170;SDS011;15458;53.346;-1.688;2023-07-20T14:01:02;6.25;;;3.58;;
28170;SDS011;15458;53.346;-1.688;2023-07-20T14:03:28;7.13;;;3.58;;
28170;SDS011;15458;53.346;-1.688;2023-07-20T14:05:54;4.60;;;3.60;;
28170;SDS011;15458;53.346;-1.688;2023-07-20T14:08:20;9.15;;;3.95;;
28170;SDS011;15458;53.346;-1.688;2023-07-20T14:10:46;4.75;;;4.07;;
28170;SDS011;15458;53.346;-1.688;2023-07-20T14:13:11;6.72;;;2.85;;
28170;SDS011;15458;53.346;-1.688;2023-07-20T14:15:38;8.07;;;3.28;;
28170;SDS011;15458;53.346;-1.688;2023-07-20T14:18:04;5.82;;;3.28;;
28170;SDS011;15458;53.346;-1.688;2023-07-20T14:20:30;5.07;;;3.22;;
28170;SDS011;15458;53.346;-1.688;2023-07-20T14:22:57;5.78;;;3.03;;
28170;SDS011;15458;53.346;-1.688;2023-07-20T14:25:22;5.10;;;3.10;;
28170;SDS011;15458;53.346;-1.688;2023-07-20T14:27:48;5.57;;;3.35;;
28170;SDS011;15458;53.346;-1.688;2023-07-20T14:30:14;5.82;;;3.13;;
28170;SDS011;15458;53.346;-1.688;2023-07-20T14:32:40;5.75;;;3.50;;
28170;SDS011;15458;53.346;-1.688;2023-07-20T14:35:05;5.07;;;3.35;;
28170;SDS011;15458;53.346;-1.688;2023-07-20T14:37:32;7.10;;;3.80;;
28170;SDS011;15458;53.346;-1.688;2023-07-20T14:39:58;4.40;;;3.25;;
28170;SDS011;15458;53.346;-1.688;2023-07-20T14:42:24;6.85;;;3.35;;
28170;SDS011;15458;53.346;-1.688;2023-07-20T14:44:49;4.68;;;3.00;;
28170;SDS011;15458;53.346;-1.688;2023-07-20T14:47:15;4.47;;;3.30;;
28170;SDS011;15458;53.346;-1.688;2023-07-20T14:49:41;6.53;;;3.10;;
28170;SDS011;15458;53.346;-1.688;2023-07-20T14:52:06;6.22;;;2.65;;
28170;SDS011;15458;53.346;-1.688;2023-07-20T14:54:32;4.07;;;2.90;;
28170;SDS011;15458;53.346;-1.688;2023-07-20T14:56:58;3.72;;;2.88;;